Аэропорт: Белгород . Белгород

ICAO: UUOB

METAR:
2020-08-12 07:00:00
UUOB 120700Z 33005MPS 9999 BKN012 18/14 Q1012 R29/010060 NOSIG
METAR:
Информация по данной станции не доступна